Time;durP1;ratioP1;P1;durP2;ratioP2;P2;SDS_P1;SDS_P2;PMS_P1;PMS_P2;Temp;Humidity;BMP_temperature;BMP_pressure;BME280_temperature;BME280_humidity;BME280_pressure;Samples;Min_cycle;Max_cycle;Signal;HPM_P1;HPM_P2
2023/07/10 20:18:03;;;;;;;8.75;3.30;;;;;;;29.14;31.34;98865.16;5221162;23;20269;-85
2023/07/10 20:20:31;;;;;;;8.05;3.33;;;;;;;29.12;30.73;98875.34;4890704;29;20479;-82
2023/07/10 20:22:57;;;;;;;;;;;;;;;29.06;31.31;98869.03;4953846;29;20054;-86
2023/07/10 20:25:22;;;;;;;17.30;4.00;;;;;;;28.95;30.65;98876.03;4917585;29;19919;-76
2023/07/10 20:27:47;;;;;;;7.88;4.05;;;;;;;28.96;31.39;98890.31;4921105;29;20047;-73
2023/07/10 20:30:18;;;;;;;9.30;3.97;;;;;;;28.93;31.89;98880.84;4890709;29;20048;-75
2023/07/10 20:32:45;;;;;;;10.38;3.95;;;;;;;28.92;32.01;98892.63;4896675;29;20036;-74
2023/07/10 20:35:13;;;;;;;8.25;4.32;;;;;;;28.93;32.27;98880.84;4899861;29;20066;-70
2023/07/10 20:37:39;;;;;;;6.97;3.88;;;;;;;28.95;33.16;98886.78;4916912;29;20040;-72
2023/07/10 20:40:11;;;;;;;7.18;3.50;;;;;;;28.90;32.69;98878.59;4891212;29;20563;-72
2023/07/10 20:42:39;;;;;;;5.68;3.72;;;;;;;28.91;32.98;98891.00;4926183;29;20043;-73
2023/07/10 20:45:07;;;;;;;8.18;3.30;;;;;;;28.93;32.12;98885.41;4901963;29;20040;-72
2023/07/10 20:47:33;;;;;;;8.88;3.45;;;;;;;28.89;32.56;98882.34;4933893;29;20059;-70
2023/07/10 20:49:58;;;;;;;6.18;3.40;;;;;;;28.93;33.49;98896.94;4916952;29;20062;-77
2023/07/10 20:52:24;;;;;;;8.75;3.17;;;;;;;28.93;33.00;98898.84;4931632;29;20582;-71
2023/07/10 20:54:50;;;;;;;13.15;3.70;;;;;;;28.94;32.97;98889.69;4916222;29;20048;-74
2023/07/10 20:57:16;;;;;;;25.45;3.72;;;;;;;28.87;33.25;98900.56;4933322;29;20066;-72
2023/07/10 20:59:41;;;;;;;39.83;3.83;;;;;;;28.87;32.98;98896.00;4891823;29;20051;-73
2023/07/10 21:02:17;;;;;;;17.67;2.95;;;;;;;28.84;32.08;98890.28;4916049;29;20098;-70
2023/07/10 21:04:43;;;;;;;8.05;3.17;;;;;;;28.84;32.25;98888.44;4917497;29;20114;-69
2023/07/10 21:07:19;;;;;;;3.95;2.75;;;;;;;28.77;32.10;98887.72;4917568;29;20159;-69
2023/07/10 21:09:49;;;;;;;6.93;2.65;;;;;;;28.75;31.72;98887.13;4917979;29;20398;-70
2023/07/10 21:12:16;;;;;;;6.35;2.50;;;;;;;28.73;31.35;98891.09;4928232;29;20130;-70
2023/07/10 21:14:42;;;;;;;4.40;2.58;;;;;;;28.72;31.62;98895.66;4917889;29;20452;-69
2023/07/10 21:17:16;;;;;;;3.85;2.75;;;;;;;28.74;31.58;98895.44;4917523;29;20059;-69
2023/07/10 21:19:42;;;;;;;5.00;2.78;;;;;;;28.75;31.72;98886.28;4917369;29;20090;-69
2023/07/10 21:22:14;;;;;;;3.85;2.38;;;;;;;28.72;31.53;98897.50;4906434;29;20119;-69
2023/07/10 21:24:40;;;;;;;8.38;2.75;;;;;;;28.69;31.37;98894.25;4928486;29;20046;-70
2023/07/10 21:27:24;;;;;;;6.38;2.58;;;;;;;28.63;31.18;98886.28;4920934;29;20031;-69
2023/07/10 21:29:50;;;;;;;5.25;2.35;;;;;;;28.64;31.46;98878.00;4936595;29;20405;-70
2023/07/10 21:32:17;;;;;;;19.05;2.83;;;;;;;28.67;31.61;98888.28;4919442;29;20121;-70
2023/07/10 21:34:43;;;;;;;5.78;2.60;;;;;;;28.66;31.54;98883.16;4923192;29;20127;-67
2023/07/10 21:37:08;;;;;;;7.07;2.40;;;;;;;28.67;31.07;98882.91;4895426;29;20082;-68
2023/07/10 21:39:35;;;;;;;5.25;2.40;;;;;;;28.67;31.80;98882.09;4934721;29;20498;-69
2023/07/10 21:42:00;;;;;;;7.10;2.53;;;;;;;28.59;31.36;98871.69;4934806;29;20507;-68
2023/07/10 21:44:26;;;;;;;6.32;2.50;;;;;;;28.61;31.70;98878.47;4917834;29;20035;-69
2023/07/10 21:46:51;;;;;;;5.45;2.50;;;;;;;28.57;31.83;98874.56;4917662;29;20415;-69
2023/07/10 21:49:17;;;;;;;5.65;2.63;;;;;;;28.60;31.94;98868.78;4917072;29;20127;-68
2023/07/10 21:51:43;;;;;;;5.53;2.55;;;;;;;28.57;31.73;98874.56;4917937;29;20027;-68
2023/07/10 21:54:09;;;;;;;4.15;2.42;;;;;;;28.59;31.59;98877.06;4933679;29;20031;-69
2023/07/10 21:56:37;;;;;;;3.40;2.40;;;;;;;28.59;32.10;98874.38;4917523;29;20028;-68
2023/07/10 21:59:03;;;;;;;5.10;2.58;;;;;;;28.57;32.28;98876.44;4933384;29;20047;-68
2023/07/10 22:01:31;;;;;;;5.15;2.42;;;;;;;28.56;31.88;98889.06;4917591;29;20035;-69
2023/07/10 22:03:57;;;;;;;3.50;2.75;;;;;;;28.55;32.13;98884.72;4901485;29;20043;-69
2023/07/10 22:06:24;;;;;;;7.20;2.90;;;;;;;28.54;32.55;98880.41;4917016;29;20036;-74
2023/07/10 22:08:50;;;;;;;4.57;2.80;;;;;;;28.55;32.61;98875.88;4902380;29;20032;-74
2023/07/10 22:11:30;;;;;;;7.55;2.55;;;;;;;28.54;32.42;98874.22;4922298;29;20107;-74
2023/07/10 22:13:55;;;;;;;5.88;2.60;;;;;;;28.52;32.39;98866.41;4935182;29;20032;-75
2023/07/10 22:16:24;;;;;;;5.90;2.90;;;;;;;28.55;33.05;98876.69;4920783;29;20512;-73
2023/07/10 22:18:54;;;;;;;4.78;2.60;;;;;;;28.50;32.39;98866.63;4933555;29;20062;-73
2023/07/10 22:21:20;;;;;;;4.65;2.58;;;;;;;28.50;32.37;98868.50;4918067;29;20062;-74
2023/07/10 22:23:45;;;;;;;6.32;2.83;;;;;;;28.48;32.54;98873.25;4917836;29;20039;-74
2023/07/10 22:26:11;;;;;;;3.90;2.55;;;;;;;28.50;32.98;98881.94;4919152;29;20063;-74
2023/07/10 22:28:37;;;;;;;3.58;2.33;;;;;;;28.47;32.78;98874.34;4905410;29;20032;-74
2023/07/10 22:31:10;;;;;;;5.30;3.00;;;;;;;28.49;32.45;98878.41;4905416;29;20031;-73
2023/07/10 22:33:36;;;;;;;3.97;2.80;;;;;;;28.48;32.71;98881.31;4937327;29;20040;-73
2023/07/10 22:36:02;;;;;;;5.72;2.80;;;;;;;28.48;32.71;98879.47;4905408;29;20035;-76
2023/07/10 22:38:29;;;;;;;4.38;2.70;;;;;;;28.48;32.81;98882.16;4937119;29;20040;-76
2023/07/10 22:41:13;;;;;;;6.13;2.85;;;;;;;28.45;33.04;98876.41;4898306;29;20048;-76
2023/07/10 22:43:41;;;;;;;5.28;2.70;;;;;;;28.42;32.83;98877.72;4934002;29;20042;-75
2023/07/10 22:46:18;;;;;;;4.97;2.80;;;;;;;28.45;32.54;98889.84;4921114;29;20031;-74
2023/07/10 22:48:43;;;;;;;4.45;2.53;;;;;;;28.39;33.05;98886.22;4905502;29;20039;-73
2023/07/10 22:51:13;;;;;;;3.78;2.72;;;;;;;28.38;33.00;98881.06;4936785;29;20091;-73
2023/07/10 22:53:39;;;;;;;4.68;2.75;;;;;;;28.38;32.73;98875.72;4920918;29;20036;-74
2023/07/10 22:56:12;;;;;;;3.53;2.88;;;;;;;28.33;33.07;98871.03;4922413;29;20118;-73
2023/07/10 22:58:39;;;;;;;4.75;2.70;;;;;;;28.34;33.12;98876.16;4886362;29;20032;-73
2023/07/10 23:01:04;;;;;;;3.75;2.90;;;;;;;28.35;33.08;98882.34;4886315;29;20043;-73
2023/07/10 23:03:30;;;;;;;4.72;2.95;;;;;;;28.29;33.25;98875.22;4917561;29;20419;-73
2023/07/10 23:05:55;;;;;;;5.13;3.00;;;;;;;28.31;33.27;98879.31;4886117;29;20502;-73
2023/07/10 23:08:21;;;;;;;4.80;2.80;;;;;;;28.29;33.00;98883.25;4901012;29;20040;-74
2023/07/10 23:10:46;;;;;;;5.45;2.78;;;;;;;28.29;32.67;98875.22;4922736;29;20090;-74
2023/07/10 23:13:12;;;;;;;5.05;2.90;;;;;;;28.27;32.91;98880.00;4928071;29;20027;-73
2023/07/10 23:15:37;;;;;;;6.20;2.75;;;;;;;28.25;33.08;98871.34;4920061;29;20044;-74
2023/07/10 23:18:03;;;;;;;5.40;2.90;;;;;;;28.20;32.99;98876.59;4919773;29;20472;-74
2023/07/10 23:20:28;;;;;;;5.43;3.10;;;;;;;28.21;33.09;98878.22;4920323;29;20039;-74
2023/07/10 23:22:54;;;;;;;5.05;3.03;;;;;;;28.20;32.79;98876.59;4936107;29;20487;-73
2023/07/10 23:25:21;;;;;;;4.55;3.22;;;;;;;28.17;32.94;98867.13;4920335;29;20372;-73
2023/07/10 23:27:46;;;;;;;4.78;3.03;;;;;;;28.15;32.45;98867.38;4920385;29;20114;-73
2023/07/10 23:30:12;;;;;;;6.22;3.42;;;;;;;28.15;33.09;98871.91;4935996;29;20111;-73
2023/07/10 23:32:38;;;;;;;6.55;3.20;;;;;;;28.09;32.94;98865.59;4919972;29;20047;-74
2023/07/10 23:35:04;;;;;;;6.35;3.00;;;;;;;28.10;33.07;98874.44;4919854;29;20066;-73
2023/07/10 23:37:29;;;;;;;3.53;2.90;;;;;;;28.09;33.24;98876.31;4919273;29;20067;-74
2023/07/10 23:39:55;;;;;;;8.68;2.72;;;;;;;28.05;33.26;98867.06;4936262;29;20031;-74
2023/07/10 23:42:20;;;;;;;3.55;2.97;;;;;;;28.06;32.91;98876.78;4920042;29;20028;-75
2023/07/10 23:44:46;;;;;;;5.82;2.90;;;;;;;28.03;33.34;98874.53;4919413;29;20039;-73
2023/07/10 23:47:12;;;;;;;4.28;3.05;;;;;;;28.04;33.30;98873.50;4919385;29;20039;-74
2023/07/10 23:49:37;;;;;;;5.70;3.22;;;;;;;28.04;33.07;98868.16;4904005;29;20130;-73
2023/07/10 23:52:03;;;;;;;6.68;3.38;;;;;;;28.05;33.31;98867.06;4935596;29;20039;-74
2023/07/10 23:54:29;;;;;;;6.20;3.15;;;;;;;28.03;33.12;98874.53;4904052;29;20055;-74
2023/07/10 23:56:54;;;;;;;7.57;2.95;;;;;;;28.06;33.40;98862.56;4899052;29;20119;-74
2023/07/10 23:59:20;;;;;;;5.15;3.05;;;;;;;28.03;33.33;98869.19;4919546;29;20038;-74
